createdAt,value
2023-06-07T00:00:29.949Z,19.30
2023-06-07T00:01:34.765Z,19.40
2023-06-07T00:02:43.802Z,19.40
2023-06-07T00:03:48.782Z,19.50
2023-06-07T00:04:50.988Z,19.50
2023-06-07T00:05:52.826Z,19.50
2023-06-07T00:06:57.779Z,19.50
2023-06-07T00:08:01.841Z,19.60
2023-06-07T00:09:04.020Z,19.70
2023-06-07T00:10:06.907Z,19.70
2023-06-07T00:11:10.222Z,19.80
2023-06-07T00:12:12.449Z,19.70
2023-06-07T00:13:15.532Z,19.80
2023-06-07T00:14:17.331Z,19.80
2023-06-07T00:15:19.198Z,19.80
2023-06-07T00:16:21.261Z,19.90
2023-06-07T00:17:26.282Z,19.70
2023-06-07T00:18:29.807Z,19.70
2023-06-07T00:19:31.632Z,19.70
2023-06-07T00:20:33.639Z,19.70
2023-06-07T00:21:35.791Z,19.70
2023-06-07T00:22:38.559Z,19.60
2023-06-07T00:23:40.410Z,19.60
2023-06-07T00:24:42.238Z,19.50
2023-06-07T00:25:45.887Z,19.50
2023-06-07T00:26:47.779Z,19.50
2023-06-07T00:27:49.785Z,19.50
2023-06-07T00:28:51.918Z,19.50
2023-06-07T00:29:53.695Z,19.50
2023-06-07T00:30:55.959Z,19.50
2023-06-07T00:31:58.114Z,19.50
2023-06-07T00:33:04.131Z,19.50
2023-06-07T00:34:06.648Z,19.50
2023-06-07T00:35:09.810Z,19.50
2023-06-07T00:36:11.675Z,19.50
2023-06-07T00:37:14.823Z,19.60
2023-06-07T00:38:16.740Z,19.60
2023-06-07T00:39:18.832Z,19.60
2023-06-07T00:40:20.780Z,19.60
2023-06-07T00:41:22.828Z,19.60
2023-06-07T00:42:24.764Z,19.60
2023-06-07T00:43:26.867Z,19.60
2023-06-07T00:44:29.011Z,19.60
2023-06-07T00:45:31.003Z,19.60
2023-06-07T00:46:33.484Z,19.60
2023-06-07T00:47:38.245Z,19.60
2023-06-07T00:48:40.609Z,19.50
2023-06-07T00:49:44.327Z,19.50
2023-06-07T00:50:47.133Z,19.50
2023-06-07T00:51:50.147Z,19.50
2023-06-07T00:52:53.485Z,19.50
2023-06-07T00:53:57.476Z,19.40
2023-06-07T00:54:59.835Z,19.40
2023-06-07T00:56:01.743Z,19.40
2023-06-07T00:57:04.728Z,19.40
2023-06-07T00:58:07.497Z,19.30
2023-06-07T00:59:09.435Z,19.50
2023-06-07T01:00:14.690Z,19.30
2023-06-07T01:01:19.272Z,19.30
2023-06-07T01:02:21.528Z,19.30
2023-06-07T01:03:25.087Z,19.30
2023-06-07T01:04:27.228Z,19.30
2023-06-07T01:05:29.075Z,19.30
2023-06-07T01:06:31.003Z,19.30
2023-06-07T01:07:34.036Z,19.30
2023-06-07T01:08:37.364Z,19.30
2023-06-07T01:09:40.116Z,19.30
2023-06-07T01:10:42.217Z,19.20
2023-06-07T01:11:47.875Z,19.20
2023-06-07T01:12:55.461Z,19.30
2023-06-07T01:13:58.784Z,19.10
2023-06-07T01:15:01.153Z,19.10
2023-06-07T01:16:03.301Z,19.10
2023-06-07T01:17:06.594Z,19.10
2023-06-07T01:18:10.967Z,19.10
2023-06-07T01:19:25.183Z,19.10
2023-06-07T01:20:28.449Z,19.10
2023-06-07T01:21:31.721Z,19.20
2023-06-07T01:22:34.463Z,19.10
2023-06-07T01:23:38.440Z,19.10
2023-06-07T01:24:43.630Z,19.10
2023-06-07T01:25:45.607Z,19.10
2023-06-07T01:26:49.374Z,19.10
2023-06-07T01:27:54.166Z,19.10
2023-06-07T01:28:56.979Z,19.10
2023-06-07T01:30:00.907Z,19.10
2023-06-07T01:31:03.860Z,19.10
2023-06-07T01:32:08.754Z,19.10
2023-06-07T01:33:11.065Z,19.10
2023-06-07T01:34:14.179Z,19.00
2023-06-07T01:35:16.786Z,19.00
2023-06-07T01:36:19.418Z,19.00
2023-06-07T01:37:22.897Z,18.90
2023-06-07T01:38:27.405Z,18.90
2023-06-07T01:39:32.203Z,18.90
2023-06-07T01:40:35.592Z,18.90
2023-06-07T01:41:37.810Z,18.90
2023-06-07T01:42:40.226Z,18.90
2023-06-07T01:43:42.590Z,18.80
2023-06-07T01:44:49.222Z,18.80
2023-06-07T01:45:53.333Z,18.80
2023-06-07T01:46:55.398Z,18.80
2023-06-07T01:47:58.685Z,18.80
2023-06-07T01:49:00.898Z,18.70
2023-06-07T01:50:03.336Z,18.70
2023-06-07T01:51:05.739Z,18.70
2023-06-07T01:52:07.775Z,18.70
2023-06-07T01:53:10.418Z,18.60
2023-06-07T01:54:13.815Z,18.60
2023-06-07T01:55:16.629Z,18.70
2023-06-07T01:56:36.973Z,18.60
2023-06-07T01:57:39.938Z,18.70
2023-06-07T01:58:49.074Z,18.70
2023-06-07T02:00:03.885Z,18.70
2023-06-07T02:01:28.606Z,18.70
2023-06-07T02:02:51.953Z,18.70
2023-06-07T02:03:55.742Z,18.70
2023-06-07T02:05:03.477Z,18.60
2023-06-07T02:06:09.614Z,18.60
2023-06-07T02:07:18.915Z,18.60
2023-06-07T02:08:25.799Z,18.60
2023-06-07T02:09:29.694Z,18.60
2023-06-07T02:10:33.570Z,18.60
2023-06-07T02:11:39.094Z,18.60
2023-06-07T02:12:43.400Z,18.60
2023-06-07T02:13:46.015Z,18.60
2023-06-07T02:14:54.058Z,18.60
2023-06-07T02:15:56.224Z,18.60
2023-06-07T02:16:58.381Z,18.60
2023-06-07T02:18:23.012Z,18.60
2023-06-07T02:19:25.952Z,18.60
2023-06-07T02:20:32.828Z,18.50
2023-06-07T02:21:38.280Z,18.70
2023-06-07T02:22:40.157Z,18.50
2023-06-07T02:23:42.049Z,18.50
2023-06-07T02:24:43.989Z,18.50
2023-06-07T02:25:46.038Z,18.50
2023-06-07T02:26:48.115Z,18.40
2023-06-07T02:27:51.090Z,18.40
2023-06-07T02:28:52.947Z,18.40
2023-06-07T02:29:54.646Z,18.40
2023-06-07T02:30:57.949Z,18.30
2023-06-07T02:32:02.177Z,18.30
2023-06-07T02:33:05.650Z,18.30
2023-06-07T02:34:09.766Z,18.30
2023-06-07T02:35:12.145Z,18.20
2023-06-07T02:36:15.493Z,18.20
2023-06-07T02:37:19.078Z,18.20
2023-06-07T02:38:21.531Z,18.20
2023-06-07T02:39:23.283Z,18.20
2023-06-07T02:40:25.155Z,18.20
2023-06-07T02:41:26.920Z,18.20
2023-06-07T02:42:28.744Z,18.10
2023-06-07T02:43:30.588Z,18.20
2023-06-07T02:44:33.422Z,18.20
2023-06-07T02:45:35.925Z,18.20
2023-06-07T02:46:37.706Z,18.20
2023-06-07T02:47:41.467Z,18.20
2023-06-07T02:48:43.250Z,18.20
2023-06-07T02:49:45.216Z,18.20
2023-06-07T02:50:47.739Z,18.10
2023-06-07T02:51:49.842Z,18.00
2023-06-07T02:52:52.182Z,18.00
2023-06-07T02:53:54.639Z,17.90
2023-06-07T02:54:56.758Z,18.00
2023-06-07T02:55:58.844Z,17.90
2023-06-07T02:57:00.602Z,17.90
2023-06-07T02:58:02.303Z,17.90
2023-06-07T02:59:04.310Z,17.90
2023-06-07T03:00:10.310Z,17.90
2023-06-07T03:01:12.903Z,17.90
2023-06-07T03:02:15.592Z,17.90
2023-06-07T03:03:18.172Z,17.90
2023-06-07T03:04:21.370Z,17.90
2023-06-07T03:05:23.242Z,17.90
2023-06-07T03:06:25.264Z,17.90
2023-06-07T03:07:27.110Z,17.90
2023-06-07T03:08:29.242Z,17.90
2023-06-07T03:09:31.797Z,17.90
2023-06-07T03:10:33.787Z,17.90
2023-06-07T03:11:35.617Z,17.90
2023-06-07T03:12:37.754Z,17.90
2023-06-07T03:13:40.911Z,17.80
2023-06-07T03:14:43.702Z,17.90
2023-06-07T03:15:47.949Z,17.90
2023-06-07T03:16:57.477Z,17.90
2023-06-07T03:18:02.342Z,17.90
2023-06-07T03:19:04.142Z,17.90
2023-06-07T03:20:08.319Z,17.90
2023-06-07T03:21:10.355Z,17.90
2023-06-07T03:22:12.154Z,17.90
2023-06-07T03:23:13.985Z,17.90
2023-06-07T03:24:17.766Z,17.90
2023-06-07T03:25:19.807Z,17.90
2023-06-07T03:26:21.696Z,17.90
2023-06-07T03:27:25.289Z,17.90
2023-06-07T03:28:27.100Z,17.80
2023-06-07T03:29:28.799Z,17.80
2023-06-07T03:30:30.622Z,17.80
2023-06-07T03:31:33.065Z,17.80
2023-06-07T03:32:34.825Z,17.80
2023-06-07T03:33:36.718Z,17.80
2023-06-07T03:34:38.435Z,17.80
2023-06-07T03:35:41.040Z,17.90
2023-06-07T03:36:43.912Z,17.90
2023-06-07T03:37:46.024Z,17.80
2023-06-07T03:38:48.169Z,17.80
2023-06-07T03:39:49.841Z,17.80
2023-06-07T03:40:51.601Z,17.80
2023-06-07T03:41:53.329Z,17.80
2023-06-07T03:42:55.053Z,17.70
2023-06-07T03:43:56.793Z,17.70
2023-06-07T03:44:58.498Z,17.70
2023-06-07T03:46:00.607Z,17.70
2023-06-07T03:47:02.370Z,17.70
2023-06-07T03:48:04.340Z,17.70
2023-06-07T03:49:06.143Z,17.70
2023-06-07T03:50:08.358Z,17.60
2023-06-07T03:51:10.866Z,17.60
2023-06-07T03:52:12.631Z,17.60
2023-06-07T03:53:14.414Z,17.60
2023-06-07T03:54:16.156Z,17.60
2023-06-07T03:55:21.280Z,17.60
2023-06-07T03:56:23.030Z,17.60
2023-06-07T03:57:25.190Z,17.60
2023-06-07T03:58:27.685Z,17.60
2023-06-07T03:59:31.543Z,17.60
2023-06-07T04:00:33.704Z,17.60
2023-06-07T04:01:35.735Z,17.60
2023-06-07T04:02:37.515Z,17.60
2023-06-07T04:03:39.417Z,17.60
2023-06-07T04:04:41.416Z,17.60
2023-06-07T04:05:43.590Z,17.70
2023-06-07T04:06:45.471Z,17.70
2023-06-07T04:07:48.678Z,17.70
2023-06-07T04:08:53.056Z,17.70
2023-06-07T04:09:54.893Z,17.60
2023-06-07T04:10:56.867Z,17.60
2023-06-07T04:11:58.855Z,17.60
2023-06-07T04:13:00.913Z,17.60
2023-06-07T04:14:02.897Z,17.60
2023-06-07T04:15:05.208Z,17.60
2023-06-07T04:16:07.137Z,17.50
2023-06-07T04:17:09.481Z,17.50
2023-06-07T04:18:14.408Z,17.60
2023-06-07T04:19:16.242Z,17.50
2023-06-07T04:20:18.013Z,17.60
2023-06-07T04:21:19.785Z,17.50
2023-06-07T04:22:21.528Z,17.50
2023-06-07T04:23:23.459Z,17.50
2023-06-07T04:24:25.291Z,17.50
2023-06-07T04:25:33.761Z,17.50
2023-06-07T04:26:36.908Z,17.50
2023-06-07T04:27:39.452Z,17.50
2023-06-07T04:28:42.604Z,17.50
2023-06-07T04:29:50.443Z,17.50
2023-06-07T04:30:58.232Z,17.50
2023-06-07T04:32:02.971Z,17.50
2023-06-07T04:33:09.761Z,17.50
2023-06-07T04:34:11.678Z,17.50
2023-06-07T04:35:15.809Z,17.60
2023-06-07T04:36:20.259Z,17.60
2023-06-07T04:37:22.343Z,17.60
2023-06-07T04:38:27.409Z,17.70
2023-06-07T04:39:29.387Z,17.70
2023-06-07T04:40:32.089Z,17.70
2023-06-07T04:41:34.641Z,17.70
2023-06-07T04:42:38.857Z,17.80
2023-06-07T04:43:42.193Z,17.80
2023-06-07T04:44:44.776Z,17.80
2023-06-07T04:45:56.207Z,17.90
2023-06-07T04:47:07.519Z,17.90
2023-06-07T04:48:13.495Z,17.90
2023-06-07T04:49:17.701Z,17.80
2023-06-07T04:50:22.096Z,17.80
2023-06-07T04:51:27.422Z,17.80
2023-06-07T04:52:30.488Z,17.90
2023-06-07T04:53:37.517Z,17.90
2023-06-07T04:54:40.925Z,17.90
2023-06-07T04:55:43.306Z,17.90
2023-06-07T04:56:45.401Z,18.00
2023-06-07T04:57:50.103Z,18.00
2023-06-07T04:58:53.592Z,18.00
2023-06-07T04:59:55.797Z,18.10
2023-06-07T05:00:58.265Z,18.10
2023-06-07T05:02:00.232Z,18.10
2023-06-07T05:03:07.931Z,18.10
2023-06-07T05:04:10.172Z,18.20
2023-06-07T05:05:14.402Z,18.20
2023-06-07T05:06:20.541Z,18.10
2023-06-07T05:07:22.704Z,18.20
2023-06-07T05:08:24.959Z,18.20
2023-06-07T05:09:34.517Z,18.30
2023-06-07T05:10:38.346Z,18.30
2023-06-07T05:11:43.147Z,18.40
2023-06-07T05:14:04.753Z,18.30
2023-06-07T05:15:15.346Z,18.50
2023-06-07T05:17:49.938Z,18.20
2023-06-07T05:18:52.253Z,18.20
2023-06-07T05:19:54.181Z,18.20
2023-06-07T05:20:56.241Z,18.20
2023-06-07T05:21:58.315Z,18.20
2023-06-07T05:23:00.256Z,18.20
2023-06-07T05:24:02.354Z,18.10
2023-06-07T05:25:05.263Z,18.20
2023-06-07T05:26:07.091Z,18.10
2023-06-07T05:27:08.899Z,18.10
2023-06-07T05:28:13.605Z,18.20
2023-06-07T05:29:16.059Z,18.20
2023-06-07T05:30:18.490Z,18.20
2023-06-07T05:31:20.723Z,18.30
2023-06-07T05:32:22.671Z,18.40
2023-06-07T05:33:24.496Z,18.40
2023-06-07T05:34:26.878Z,18.60
2023-06-07T05:35:29.366Z,18.40
2023-06-07T05:36:31.550Z,18.40
2023-06-07T05:37:33.595Z,18.40
2023-06-07T05:38:38.321Z,18.40
2023-06-07T05:39:42.896Z,18.40
2023-06-07T05:40:44.772Z,18.50
2023-06-07T05:41:46.512Z,18.50
2023-06-07T05:42:50.452Z,18.60
2023-06-07T05:43:52.274Z,18.70
2023-06-07T05:44:56.652Z,18.80
2023-06-07T05:46:00.413Z,18.80
2023-06-07T05:47:03.581Z,18.90
2023-06-07T05:48:07.005Z,19.00
2023-06-07T05:49:09.764Z,19.10
2023-06-07T05:50:13.273Z,19.20
2023-06-07T05:51:17.387Z,19.30
2023-06-07T05:52:20.237Z,19.40
2023-06-07T05:53:23.345Z,19.40
2023-06-07T05:54:27.188Z,19.40
2023-06-07T05:55:29.499Z,19.50
2023-06-07T05:56:32.832Z,19.50
2023-06-07T05:57:38.187Z,19.50
2023-06-07T05:58:42.150Z,19.50
2023-06-07T05:59:45.742Z,19.60
2023-06-07T06:00:50.680Z,19.60
2023-06-07T06:01:53.578Z,19.70
2023-06-07T06:02:55.882Z,19.70
2023-06-07T06:03:58.158Z,19.80
2023-06-07T06:04:59.929Z,19.90
2023-06-07T06:06:17.658Z,19.90
2023-06-07T06:07:20.254Z,20.00
2023-06-07T06:08:22.085Z,20.10
2023-06-07T06:09:25.550Z,20.20
2023-06-07T06:10:27.546Z,20.30
2023-06-07T06:11:29.526Z,20.40
2023-06-07T06:12:32.051Z,20.50
2023-06-07T06:13:34.087Z,20.50
2023-06-07T06:14:35.803Z,20.60
2023-06-07T06:15:39.151Z,20.60
2023-06-07T06:16:42.714Z,20.70
2023-06-07T06:17:52.457Z,20.80
2023-06-07T06:18:54.396Z,20.90
2023-06-07T06:19:57.446Z,21.00
2023-06-07T06:20:59.295Z,21.10
2023-06-07T06:22:01.649Z,21.20
2023-06-07T06:23:05.914Z,21.20
2023-06-07T06:24:08.057Z,21.30
2023-06-07T06:25:13.282Z,21.30
2023-06-07T06:26:16.483Z,21.40
2023-06-07T06:27:21.870Z,21.50
2023-06-07T06:28:23.729Z,21.50
2023-06-07T06:29:25.879Z,21.60
2023-06-07T06:30:29.445Z,21.60
2023-06-07T06:31:31.724Z,21.70
2023-06-07T06:32:33.457Z,21.70
2023-06-07T06:33:35.170Z,21.70
2023-06-07T06:34:37.484Z,21.70
2023-06-07T06:35:42.072Z,21.80
2023-06-07T06:36:45.408Z,21.80
2023-06-07T06:37:47.401Z,21.80
2023-06-07T06:38:49.207Z,21.90
2023-06-07T06:39:54.746Z,21.90
2023-06-07T06:40:57.450Z,22.00
2023-06-07T06:41:59.205Z,22.00
2023-06-07T06:43:01.360Z,22.00
2023-06-07T06:44:03.176Z,22.00
2023-06-07T06:45:06.774Z,22.10
2023-06-07T06:46:08.857Z,22.10
2023-06-07T06:47:11.296Z,22.20
2023-06-07T06:48:13.494Z,22.20
2023-06-07T06:49:15.816Z,22.20
2023-06-07T06:51:22.282Z,22.30
2023-06-07T06:52:27.037Z,22.30
2023-06-07T06:53:28.984Z,22.30
2023-06-07T06:54:31.153Z,22.30
2023-06-07T06:55:32.996Z,22.30
2023-06-07T06:56:37.338Z,22.30
2023-06-07T06:57:39.301Z,22.40
2023-06-07T06:58:42.433Z,22.30
2023-06-07T06:59:44.158Z,22.30
2023-06-07T07:00:46.518Z,22.20
2023-06-07T07:04:04.649Z,22.20
2023-06-07T07:05:07.204Z,22.10
2023-06-07T07:06:09.400Z,22.10
2023-06-07T07:07:11.694Z,22.00
2023-06-07T07:08:13.488Z,22.00
2023-06-07T07:09:16.029Z,22.00
2023-06-07T07:10:19.756Z,22.00
2023-06-07T07:11:23.331Z,22.10
2023-06-07T07:12:26.422Z,22.10
2023-06-07T07:13:28.304Z,22.10
2023-06-07T07:14:34.276Z,22.20
2023-06-07T07:15:37.602Z,22.20
2023-06-07T07:16:48.135Z,22.20
2023-06-07T07:17:52.840Z,22.20
2023-06-07T07:18:54.588Z,22.30
2023-06-07T07:19:56.237Z,22.30
2023-06-07T07:20:58.003Z,22.40
2023-06-07T07:21:59.704Z,22.40
2023-06-07T07:23:03.212Z,22.40
2023-06-07T07:24:05.498Z,22.50
2023-06-07T07:25:10.028Z,22.50
2023-06-07T07:26:14.706Z,22.50
2023-06-07T07:27:20.649Z,22.50
2023-06-07T07:28:23.683Z,22.50
2023-06-07T07:29:27.543Z,22.50
2023-06-07T07:30:30.728Z,22.50
2023-06-07T07:31:35.200Z,22.50
2023-06-07T07:32:41.314Z,22.60
2023-06-07T07:33:43.718Z,22.60
2023-06-07T07:34:45.927Z,22.60
2023-06-07T07:35:48.754Z,22.60
2023-06-07T07:36:52.164Z,22.70
2023-06-07T07:37:56.816Z,22.70
2023-06-07T07:39:05.969Z,22.70
2023-06-07T07:40:14.689Z,22.70
2023-06-07T07:41:16.346Z,22.70
2023-06-07T07:42:18.049Z,22.70
2023-06-07T07:43:21.496Z,22.60
2023-06-07T07:44:23.765Z,22.60
2023-06-07T07:45:26.498Z,22.60
2023-06-07T07:46:29.780Z,22.50
2023-06-07T07:47:31.768Z,22.60
2023-06-07T07:48:33.540Z,22.60
2023-06-07T07:49:36.792Z,22.60
2023-06-07T07:50:40.028Z,22.60
2023-06-07T07:51:41.752Z,22.70
2023-06-07T07:52:43.471Z,22.70
2023-06-07T07:53:45.217Z,22.70
2023-06-07T07:54:47.384Z,22.70
2023-06-07T07:55:49.178Z,22.80
2023-06-07T07:56:51.155Z,22.80
2023-06-07T07:57:53.140Z,22.80
2023-06-07T07:58:55.130Z,22.80
2023-06-07T07:59:57.142Z,22.90
2023-06-07T08:00:59.185Z,22.90
2023-06-07T08:02:01.750Z,22.90
2023-06-07T08:03:04.435Z,22.90
2023-06-07T08:04:06.611Z,23.00
2023-06-07T08:05:08.870Z,22.90
2023-06-07T08:06:10.762Z,22.90
2023-06-07T08:07:17.167Z,22.90
2023-06-07T08:08:19.303Z,22.90
2023-06-07T08:09:21.367Z,22.90
2023-06-07T08:10:23.402Z,22.90
2023-06-07T08:11:27.148Z,22.90
2023-06-07T08:12:29.150Z,22.90
2023-06-07T08:13:31.264Z,22.90
2023-06-07T08:14:33.992Z,22.90
2023-06-07T08:15:35.800Z,22.90
2023-06-07T08:16:37.518Z,22.90
2023-06-07T08:17:40.313Z,22.90
2023-06-07T08:18:45.343Z,23.00
2023-06-07T08:19:48.677Z,23.00
2023-06-07T08:20:50.438Z,23.10
2023-06-07T08:21:52.462Z,23.20
2023-06-07T08:22:54.478Z,23.30
2023-06-07T08:23:56.705Z,23.30
2023-06-07T08:24:58.395Z,23.30
2023-06-07T08:26:00.875Z,23.30
2023-06-07T08:27:02.726Z,23.30
2023-06-07T08:28:09.459Z,23.30
2023-06-07T08:29:11.847Z,23.20
2023-06-07T08:30:15.262Z,23.20
2023-06-07T08:31:19.072Z,23.20
2023-06-07T08:32:23.159Z,23.20
2023-06-07T08:33:25.664Z,23.30
2023-06-07T08:34:31.246Z,23.30
2023-06-07T08:35:36.021Z,23.30
2023-06-07T08:36:41.412Z,23.30
2023-06-07T08:37:43.544Z,23.40
2023-06-07T08:38:45.591Z,23.40
2023-06-07T08:39:49.188Z,23.40
2023-06-07T08:40:56.594Z,23.40
2023-06-07T08:41:58.783Z,23.40
2023-06-07T08:43:01.212Z,23.60
2023-06-07T08:44:03.207Z,23.40
2023-06-07T08:45:05.970Z,23.50
2023-06-07T08:46:07.987Z,23.50
2023-06-07T08:47:15.392Z,23.70
2023-06-07T08:48:17.908Z,23.60
2023-06-07T08:49:21.320Z,23.60
2023-06-07T08:50:23.402Z,23.70
2023-06-07T08:51:27.317Z,23.70
2023-06-07T08:52:32.431Z,23.80
2023-06-07T08:53:51.948Z,23.80
2023-06-07T08:54:56.566Z,23.70
2023-06-07T08:55:59.566Z,23.80
2023-06-07T08:57:01.544Z,23.70
2023-06-07T08:58:03.316Z,23.70
2023-06-07T08:59:06.162Z,23.70
2023-06-07T09:00:10.024Z,23.80
2023-06-07T09:01:13.079Z,23.80
2023-06-07T09:02:15.971Z,23.90
2023-06-07T09:03:20.225Z,23.90
2023-06-07T09:04:22.779Z,24.00
2023-06-07T09:05:24.826Z,24.00
2023-06-07T09:06:28.190Z,23.90
2023-06-07T09:07:31.310Z,24.00
2023-06-07T09:08:33.748Z,24.00
2023-06-07T09:09:40.596Z,24.00
2023-06-07T09:10:42.951Z,23.90
2023-06-07T09:11:44.747Z,24.00
2023-06-07T09:12:49.226Z,23.90
2023-06-07T09:13:54.245Z,24.10
2023-06-07T09:14:57.823Z,23.80
2023-06-07T09:16:00.656Z,23.80
2023-06-07T12:40:13.345Z,28.40
2023-06-07T12:41:15.419Z,28.30
2023-06-07T12:42:22.504Z,28.50
2023-06-07T12:43:25.402Z,28.60
2023-06-07T12:44:27.345Z,28.60
2023-06-07T12:45:29.311Z,28.70
2023-06-07T12:46:31.958Z,28.60
2023-06-07T12:47:34.165Z,28.60
2023-06-07T12:48:36.186Z,28.70
2023-06-07T12:49:38.733Z,28.80
2023-06-07T12:50:40.698Z,29.00
2023-06-07T12:51:42.478Z,29.10
2023-06-07T12:52:45.707Z,29.20
2023-06-07T12:53:47.726Z,29.30
2023-06-07T12:54:49.785Z,29.30
2023-06-07T12:55:51.736Z,29.40
2023-06-07T12:56:54.048Z,29.50
2023-06-07T12:57:56.512Z,29.50
2023-06-07T12:58:59.534Z,29.60
2023-06-07T13:00:03.274Z,29.60
2023-06-07T13:01:05.882Z,29.70
2023-06-07T13:02:07.954Z,29.80
2023-06-07T13:03:10.011Z,29.90
2023-06-07T13:04:12.240Z,29.90
2023-06-07T13:05:16.106Z,30.00
2023-06-07T13:06:18.028Z,29.90
2023-06-07T13:07:22.752Z,29.80
2023-06-07T13:08:24.990Z,29.70
2023-06-07T13:09:27.035Z,29.60
2023-06-07T13:10:29.069Z,29.60
2023-06-07T13:11:32.429Z,29.60
2023-06-07T13:12:35.062Z,29.50
2023-06-07T13:13:37.117Z,29.50
2023-06-07T13:14:39.152Z,29.50
2023-06-07T13:15:53.888Z,29.50
2023-06-07T13:16:55.903Z,29.60
2023-06-07T13:17:57.960Z,29.50
2023-06-07T13:19:00.093Z,29.50
2023-06-07T13:20:02.415Z,29.40
2023-06-07T13:21:04.485Z,29.40
2023-06-07T13:22:07.119Z,29.30
2023-06-07T13:23:09.243Z,29.20
2023-06-07T13:24:11.447Z,29.10
2023-06-07T13:25:13.547Z,29.10
2023-06-07T13:26:16.428Z,29.10
2023-06-07T13:27:18.527Z,29.20
2023-06-07T13:28:20.966Z,29.30
2023-06-07T13:29:23.064Z,29.40
2023-06-07T13:30:26.670Z,29.40
2023-06-07T13:31:28.974Z,29.50
2023-06-07T13:32:31.097Z,29.60
2023-06-07T13:33:32.974Z,29.70
2023-06-07T13:34:34.845Z,29.80
2023-06-07T13:35:37.953Z,29.90
2023-06-07T13:36:40.371Z,30.00
2023-06-07T13:37:42.312Z,30.00
2023-06-07T13:38:44.324Z,30.10
2023-06-07T13:39:46.846Z,30.10
2023-06-07T13:40:48.871Z,30.00
2023-06-07T13:41:51.322Z,30.00
2023-06-07T13:42:53.088Z,29.90
2023-06-07T13:45:02.266Z,29.60
2023-06-07T13:46:04.517Z,29.60
2023-06-07T13:47:07.000Z,29.60
2023-06-07T13:48:10.575Z,29.60
2023-06-07T13:49:13.574Z,29.60
2023-06-07T13:50:16.270Z,29.60
2023-06-07T13:51:19.246Z,29.60
2023-06-07T13:52:21.553Z,29.70
2023-06-07T13:53:23.672Z,29.70
2023-06-07T13:54:25.574Z,29.70
2023-06-07T13:55:27.518Z,29.60
2023-06-07T13:56:29.735Z,29.50
2023-06-07T13:57:31.841Z,29.50
2023-06-07T13:58:34.693Z,29.40
2023-06-07T13:59:36.749Z,29.30
2023-06-07T14:00:38.772Z,29.20
2023-06-07T14:01:41.623Z,29.10
2023-06-07T14:02:44.144Z,29.10
2023-06-07T14:03:47.164Z,29.10
2023-06-07T14:04:49.831Z,29.00
2023-06-07T14:05:52.567Z,28.80
2023-06-07T14:06:54.843Z,28.70
2023-06-07T14:07:57.024Z,28.60
2023-06-07T14:08:58.882Z,28.50
2023-06-07T14:10:01.618Z,28.60
2023-06-07T14:11:05.307Z,28.60
2023-06-07T14:12:09.580Z,28.70
2023-06-07T14:13:11.910Z,28.70
2023-06-07T14:14:16.261Z,28.80
2023-06-07T14:17:41.227Z,28.90
2023-06-07T14:18:43.645Z,29.00
2023-06-07T14:19:45.655Z,28.90
2023-06-07T14:20:47.719Z,28.90
2023-06-07T14:21:50.252Z,28.90
2023-06-07T14:22:56.134Z,28.90
2023-06-07T14:23:58.195Z,28.90
2023-06-07T14:25:00.265Z,28.90
2023-06-07T14:26:02.281Z,28.80
2023-06-07T14:27:04.777Z,28.80
2023-06-07T14:28:06.928Z,28.80
2023-06-07T14:29:09.109Z,28.80
2023-06-07T14:30:11.822Z,28.80
2023-06-07T14:31:13.956Z,28.70
2023-06-07T14:32:16.488Z,28.70
2023-06-07T14:33:18.407Z,28.70
2023-06-07T14:34:20.829Z,28.60
2023-06-07T14:35:22.915Z,28.60
2023-06-07T14:36:25.037Z,28.60
2023-06-07T14:37:26.802Z,28.60
2023-06-07T14:38:29.112Z,28.60
2023-06-07T14:39:31.297Z,28.60
2023-06-07T14:40:34.297Z,28.60
2023-06-07T14:41:36.365Z,28.50
2023-06-07T14:42:38.332Z,28.50
2023-06-07T14:43:40.933Z,28.50
2023-06-07T14:44:42.960Z,28.50
2023-06-07T14:45:45.446Z,28.40
2023-06-07T14:46:47.667Z,28.40
2023-06-07T14:47:50.985Z,28.40
2023-06-07T14:48:52.907Z,28.30
2023-06-07T14:49:54.686Z,28.30
2023-06-07T14:50:56.538Z,28.30
2023-06-07T14:51:58.551Z,28.40
2023-06-07T14:53:01.271Z,28.30
2023-06-07T14:54:06.092Z,28.40
2023-06-07T14:55:08.998Z,28.40
2023-06-07T14:56:11.005Z,28.40
2023-06-07T14:57:13.469Z,28.40
2023-06-07T14:58:15.291Z,28.50
2023-06-07T14:59:17.586Z,28.50
2023-06-07T15:00:20.549Z,28.50
2023-06-07T15:01:24.433Z,28.50
2023-06-07T15:02:27.018Z,28.50
2023-06-07T15:03:29.233Z,28.60
2023-06-07T15:04:31.287Z,28.70
2023-06-07T15:05:39.159Z,28.80
2023-06-07T15:06:41.132Z,29.00
2023-06-07T15:07:42.947Z,29.30
2023-06-07T15:08:44.936Z,29.70
2023-06-07T15:09:46.719Z,30.10
2023-06-07T15:10:48.506Z,30.60
2023-06-07T15:11:50.520Z,31.10
2023-06-07T15:12:52.574Z,31.60
2023-06-07T15:13:54.570Z,32.10
2023-06-07T15:14:56.578Z,32.60
2023-06-07T15:15:58.422Z,33.20
2023-06-07T15:17:01.906Z,33.80
2023-06-07T15:18:04.434Z,34.40
2023-06-07T15:19:06.245Z,34.80
2023-06-07T15:20:08.937Z,35.20
2023-06-07T15:21:10.789Z,35.70
2023-06-07T15:22:12.526Z,36.20
2023-06-07T15:23:14.295Z,36.60
2023-06-07T15:24:16.400Z,37.00
2023-06-07T15:25:18.243Z,37.30
2023-06-07T15:26:20.043Z,37.70
2023-06-07T15:27:21.757Z,38.00
2023-06-07T15:28:23.496Z,38.20
2023-06-07T15:29:25.595Z,38.40
2023-06-07T15:30:27.375Z,38.60
2023-06-07T15:31:29.106Z,39.10
2023-06-07T15:32:30.901Z,39.30
2023-06-07T15:33:32.628Z,39.60
2023-06-07T15:34:34.456Z,39.90
2023-06-07T15:35:36.172Z,40.20
2023-06-07T15:36:38.124Z,40.40
2023-06-07T15:37:40.143Z,40.60
2023-06-07T15:38:41.921Z,40.80
2023-06-07T15:39:46.422Z,41.10
2023-06-07T15:40:48.144Z,41.20
2023-06-07T15:41:52.750Z,41.40
2023-06-07T15:42:54.669Z,41.60
2023-06-07T15:43:56.975Z,41.70
2023-06-07T15:44:58.720Z,41.90
2023-06-07T15:46:00.825Z,42.00
2023-06-07T15:47:02.719Z,42.20
2023-06-07T15:48:09.165Z,42.40
2023-06-07T15:49:10.988Z,42.60
2023-06-07T15:50:12.938Z,42.80
2023-06-07T15:51:14.764Z,42.80
2023-06-07T15:52:16.797Z,43.00
2023-06-07T15:53:19.069Z,43.10
2023-06-07T15:54:20.873Z,43.30
2023-06-07T15:55:24.557Z,43.30
2023-06-07T15:56:26.255Z,43.10
2023-06-07T15:57:28.031Z,42.70
2023-06-07T15:58:29.866Z,42.00
2023-06-07T15:59:32.086Z,41.40
2023-06-07T16:00:38.417Z,40.60
2023-06-07T16:01:41.449Z,39.90
2023-06-07T16:02:43.705Z,39.20
2023-06-07T16:03:55.633Z,38.50
2023-06-07T16:04:57.819Z,37.80
2023-06-07T16:05:59.473Z,37.10
2023-06-07T16:07:02.095Z,36.70
2023-06-07T16:08:12.327Z,36.10
2023-06-07T16:09:15.070Z,35.60
2023-06-07T16:10:16.861Z,35.20
2023-06-07T16:11:18.617Z,34.90
2023-06-07T16:12:20.478Z,34.50
2023-06-07T16:13:22.193Z,34.10
2023-06-07T16:14:23.900Z,33.80
2023-06-07T16:15:56.139Z,33.50
2023-06-07T16:16:59.248Z,33.20
2023-06-07T16:18:01.369Z,32.80
2023-06-07T16:19:04.091Z,32.50
2023-06-07T16:20:07.033Z,32.30
2023-06-07T16:21:09.294Z,32.10
2023-06-07T16:22:11.863Z,31.90
2023-06-07T16:23:13.863Z,31.70
2023-06-07T16:24:16.110Z,31.60
2023-06-07T16:25:18.143Z,31.40
2023-06-07T16:26:20.459Z,31.30
2023-06-07T16:27:22.604Z,31.10
2023-06-07T16:28:24.678Z,31.00
2023-06-07T16:29:26.836Z,30.80
2023-06-07T16:30:28.988Z,30.70
2023-06-07T16:31:32.017Z,30.60
2023-06-07T16:32:34.244Z,30.40
2023-06-07T16:33:36.519Z,30.40
2023-06-07T16:34:38.581Z,30.30
2023-06-07T16:35:43.103Z,30.20
2023-06-07T16:36:45.794Z,30.20
2023-06-07T16:37:47.818Z,30.10
2023-06-07T16:38:50.682Z,30.10
2023-06-07T16:39:52.547Z,30.00
2023-06-07T16:40:54.625Z,30.00
2023-06-07T16:41:56.536Z,29.90
2023-06-07T16:42:59.130Z,29.90
2023-06-07T16:44:01.530Z,29.80
2023-06-07T16:45:03.748Z,29.80
2023-06-07T16:46:05.633Z,29.80
2023-06-07T16:47:07.813Z,29.70
2023-06-07T16:48:09.791Z,29.70
2023-06-07T16:49:11.876Z,29.70
2023-06-07T16:50:13.634Z,29.70
2023-06-07T16:51:15.732Z,29.60
2023-06-07T16:52:18.917Z,29.60
2023-06-07T16:53:20.948Z,29.60
2023-06-07T16:54:23.048Z,29.60
2023-06-07T16:55:24.795Z,29.50
2023-06-07T16:56:28.529Z,29.50
2023-06-07T16:57:30.494Z,29.50
2023-06-07T16:58:33.151Z,29.40
2023-06-07T16:59:35.105Z,29.40
2023-06-07T17:00:37.207Z,29.40
2023-06-07T17:01:40.783Z,29.30
2023-06-07T17:02:43.021Z,29.30
2023-06-07T17:03:45.251Z,29.20
2023-06-07T17:04:47.312Z,29.20
2023-06-07T17:05:49.334Z,29.20